sensor_id;sensor_type;location;lat;lon;timestamp;pressure;altitude;pressure_sealevel;temperature;humidity
64352;BME280;50680;52.626;-8.668;2023-04-05T00:02:19;101706.47;;;14.06;100.00
64352;BME280;50680;52.626;-8.668;2023-04-05T00:04:46;101707.59;;;14.02;100.00
64352;BME280;50680;52.626;-8.668;2023-04-05T00:07:18;101703.53;;;13.96;100.00
64352;BME280;50680;52.626;-8.668;2023-04-05T00:09:47;101705.22;;;13.97;100.00
64352;BME280;50680;52.626;-8.668;2023-04-05T00:12:15;101708.22;;;13.91;100.00
64352;BME280;50680;52.626;-8.668;2023-04-05T00:14:42;101705.22;;;13.97;100.00
64352;BME280;50680;52.626;-8.668;2023-04-05T00:17:09;101700.00;;;13.81;100.00
64352;BME280;50680;52.626;-8.668;2023-04-05T00:19:38;101716.56;;;13.83;100.00
64352;BME280;50680;52.626;-8.668;2023-04-05T00:22:05;101710.16;;;13.87;100.00
64352;BME280;50680;52.626;-8.668;2023-04-05T00:24:31;101700.50;;;13.88;100.00
64352;BME280;50680;52.626;-8.668;2023-04-05T00:26:59;101707.66;;;13.70;100.00
64352;BME280;50680;52.626;-8.668;2023-04-05T00:29:27;101699.16;;;13.81;100.00
64352;BME280;50680;52.626;-8.668;2023-04-05T00:31:54;101700.00;;;13.81;100.00
64352;BME280;50680;52.626;-8.668;2023-04-05T00:34:21;101698.19;;;13.82;100.00
64352;BME280;50680;52.626;-8.668;2023-04-05T00:36:48;101694.56;;;13.84;100.00
64352;BME280;50680;52.626;-8.668;2023-04-05T00:39:15;101698.03;;;13.85;100.00
64352;BME280;50680;52.626;-8.668;2023-04-05T00:41:42;101686.44;;;13.87;100.00
64352;BME280;50680;52.626;-8.668;2023-04-05T00:44:13;101688.31;;;13.85;100.00
64352;BME280;50680;52.626;-8.668;2023-04-05T00:46:40;101686.34;;;13.89;100.00
64352;BME280;50680;52.626;-8.668;2023-04-05T00:49:07;101691.00;;;14.00;100.00
64352;BME280;50680;52.626;-8.668;2023-04-05T00:51:35;101685.84;;;13.98;100.00
64352;BME280;50680;52.626;-8.668;2023-04-05T00:54:02;101688.94;;;14.05;100.00
64352;BME280;50680;52.626;-8.668;2023-04-05T00:56:29;101692.47;;;14.05;100.00
64352;BME280;50680;52.626;-8.668;2023-04-05T00:58:56;101695.00;;;14.07;100.00
64352;BME280;50680;52.626;-8.668;2023-04-05T01:01:24;101687.84;;;14.09;100.00
64352;BME280;50680;52.626;-8.668;2023-04-05T01:03:54;101691.25;;;14.11;100.00
64352;BME280;50680;52.626;-8.668;2023-04-05T01:06:35;101687.09;;;14.07;100.00
64352;BME280;50680;52.626;-8.668;2023-04-05T01:11:53;101691.16;;;14.13;100.00
64352;BME280;50680;52.626;-8.668;2023-04-05T01:14:22;101671.34;;;14.05;100.00
64352;BME280;50680;52.626;-8.668;2023-04-05T01:16:49;101675.31;;;13.98;100.00
64352;BME280;50680;52.626;-8.668;2023-04-05T01:19:17;101677.53;;;13.90;100.00
64352;BME280;50680;52.626;-8.668;2023-04-05T01:30:38;101667.06;;;13.88;100.00
64352;BME280;50680;52.626;-8.668;2023-04-05T01:38:39;101663.63;;;14.02;100.00
64352;BME280;50680;52.626;-8.668;2023-04-05T01:41:09;101659.94;;;14.05;100.00
64352;BME280;50680;52.626;-8.668;2023-04-05T01:43:36;101659.69;;;14.09;100.00
64352;BME280;50680;52.626;-8.668;2023-04-05T01:46:02;101649.13;;;14.09;100.00
64352;BME280;50680;52.626;-8.668;2023-04-05T01:48:29;101651.59;;;14.13;100.00
64352;BME280;50680;52.626;-8.668;2023-04-05T01:50:56;101648.88;;;14.14;100.00
64352;BME280;50680;52.626;-8.668;2023-04-05T01:53:23;101654.91;;;14.16;100.00
64352;BME280;50680;52.626;-8.668;2023-04-05T01:55:50;101644.59;;;14.11;100.00
64352;BME280;50680;52.626;-8.668;2023-04-05T01:58:17;101651.34;;;14.17;100.00
64352;BME280;50680;52.626;-8.668;2023-04-05T02:00:43;101642.75;;;14.14;100.00
64352;BME280;50680;52.626;-8.668;2023-04-05T02:03:10;101644.81;;;14.08;100.00
64352;BME280;50680;52.626;-8.668;2023-04-05T02:05:37;101633.47;;;14.06;100.00
64352;BME280;50680;52.626;-8.668;2023-04-05T02:08:04;101629.91;;;14.07;100.00
64352;BME280;50680;52.626;-8.668;2023-04-05T02:10:31;101630.59;;;14.11;100.00
64352;BME280;50680;52.626;-8.668;2023-04-05T02:12:58;101631.81;;;14.05;100.00
64352;BME280;50680;52.626;-8.668;2023-04-05T02:15:25;101622.91;;;13.92;100.00
64352;BME280;50680;52.626;-8.668;2023-04-05T02:17:51;101631.41;;;13.97;100.00
64352;BME280;50680;52.626;-8.668;2023-04-05T02:20:20;101625.28;;;13.97;100.00
64352;BME280;50680;52.626;-8.668;2023-04-05T02:22:47;101622.66;;;13.97;100.00
64352;BME280;50680;52.626;-8.668;2023-04-05T02:25:13;101616.91;;;14.04;100.00
64352;BME280;50680;52.626;-8.668;2023-04-05T02:27:40;101620.03;;;14.11;100.00
64352;BME280;50680;52.626;-8.668;2023-04-05T02:30:08;101620.97;;;14.10;100.00
64352;BME280;50680;52.626;-8.668;2023-04-05T02:32:35;101612.22;;;14.09;100.00
64352;BME280;50680;52.626;-8.668;2023-04-05T02:35:02;101615.69;;;14.10;100.00
64352;BME280;50680;52.626;-8.668;2023-04-05T02:37:30;101613.84;;;14.12;100.00
64352;BME280;50680;52.626;-8.668;2023-04-05T02:39:56;101611.19;;;14.12;100.00
64352;BME280;50680;52.626;-8.668;2023-04-05T02:42:23;101611.34;;;13.95;100.00
64352;BME280;50680;52.626;-8.668;2023-04-05T02:44:51;101609.47;;;13.97;100.00
64352;BME280;50680;52.626;-8.668;2023-04-05T02:47:18;101604.38;;;13.94;100.00
64352;BME280;50680;52.626;-8.668;2023-04-05T02:49:47;101606.84;;;13.97;100.00
64352;BME280;50680;52.626;-8.668;2023-04-05T02:52:15;101603.63;;;13.91;100.00
64352;BME280;50680;52.626;-8.668;2023-04-05T02:54:42;101597.03;;;13.99;100.00
64352;BME280;50680;52.626;-8.668;2023-04-05T02:57:10;101599.75;;;13.97;100.00
64352;BME280;50680;52.626;-8.668;2023-04-05T02:59:37;101593.75;;;14.09;100.00
64352;BME280;50680;52.626;-8.668;2023-04-05T03:02:05;101590.06;;;13.98;100.00
64352;BME280;50680;52.626;-8.668;2023-04-05T03:04:32;101587.63;;;13.95;100.00
64352;BME280;50680;52.626;-8.668;2023-04-05T03:07:04;101589.97;;;13.99;100.00
64352;BME280;50680;52.626;-8.668;2023-04-05T03:09:31;101583.28;;;13.94;100.00
64352;BME280;50680;52.626;-8.668;2023-04-05T03:12:04;101578.19;;;13.90;100.00
64352;BME280;50680;52.626;-8.668;2023-04-05T03:14:32;101567.81;;;13.87;100.00
64352;BME280;50680;52.626;-8.668;2023-04-05T03:16:59;101573.09;;;13.87;100.00
64352;BME280;50680;52.626;-8.668;2023-04-05T03:19:26;101567.81;;;13.87;100.00
64352;BME280;50680;52.626;-8.668;2023-04-05T03:21:53;101568.03;;;13.84;100.00
64352;BME280;50680;52.626;-8.668;2023-04-05T03:24:20;101564.59;;;13.82;100.00
64352;BME280;50680;52.626;-8.668;2023-04-05T03:26:47;101564.16;;;13.90;100.00
64352;BME280;50680;52.626;-8.668;2023-04-05T03:29:15;101557.56;;;13.97;100.00
64352;BME280;50680;52.626;-8.668;2023-04-05T03:31:43;101557.50;;;13.99;100.00
64352;BME280;50680;52.626;-8.668;2023-04-05T03:34:10;101553.34;;;13.95;100.00
64352;BME280;50680;52.626;-8.668;2023-04-05T03:36:37;101558.81;;;13.91;100.00
64352;BME280;50680;52.626;-8.668;2023-04-05T03:39:08;101555.03;;;13.96;100.00
64352;BME280;50680;52.626;-8.668;2023-04-05T03:41:39;101554.00;;;13.98;100.00
64352;BME280;50680;52.626;-8.668;2023-04-05T03:44:07;101547.41;;;14.05;100.00
64352;BME280;50680;52.626;-8.668;2023-04-05T03:46:34;101547.34;;;14.07;100.00
64352;BME280;50680;52.626;-8.668;2023-04-05T03:49:04;101546.94;;;14.13;100.00
64352;BME280;50680;52.626;-8.668;2023-04-05T03:51:31;101545.19;;;14.14;100.00
64352;BME280;50680;52.626;-8.668;2023-04-05T03:53:58;101545.06;;;14.15;100.00
64352;BME280;50680;52.626;-8.668;2023-04-05T03:56:25;101544.78;;;14.20;100.00
64352;BME280;50680;52.626;-8.668;2023-04-05T03:58:52;101545.63;;;14.20;100.00
64352;BME280;50680;52.626;-8.668;2023-04-05T04:01:19;101548.34;;;14.19;100.00
64352;BME280;50680;52.626;-8.668;2023-04-05T04:03:46;101541.13;;;14.22;100.00
64352;BME280;50680;52.626;-8.668;2023-04-05T04:06:13;101538.56;;;14.21;100.00
64352;BME280;50680;52.626;-8.668;2023-04-05T04:08:44;101541.97;;;14.23;100.00
64352;BME280;50680;52.626;-8.668;2023-04-05T04:11:11;101537.91;;;14.17;100.00
64352;BME280;50680;52.626;-8.668;2023-04-05T04:13:38;101537.91;;;14.17;100.00
64352;BME280;50680;52.626;-8.668;2023-04-05T04:16:05;101541.88;;;14.24;100.00
64352;BME280;50680;52.626;-8.668;2023-04-05T04:18:32;101539.59;;;14.18;100.00
64352;BME280;50680;52.626;-8.668;2023-04-05T04:21:02;101531.00;;;14.29;100.00
64352;BME280;50680;52.626;-8.668;2023-04-05T04:23:33;101527.81;;;14.38;100.00
64352;BME280;50680;52.626;-8.668;2023-04-05T04:26:04;101530.00;;;14.32;100.00
64352;BME280;50680;52.626;-8.668;2023-04-05T04:28:31;101527.16;;;14.35;100.00
64352;BME280;50680;52.626;-8.668;2023-04-05T04:31:00;101523.66;;;14.34;100.00
64352;BME280;50680;52.626;-8.668;2023-04-05T04:33:30;101523.66;;;14.34;100.00
64352;BME280;50680;52.626;-8.668;2023-04-05T04:35:57;101517.38;;;14.37;100.00
64352;BME280;50680;52.626;-8.668;2023-04-05T04:38:24;101516.41;;;14.38;100.00
64352;BME280;50680;52.626;-8.668;2023-04-05T04:40:52;101519.59;;;14.43;100.00
64352;BME280;50680;52.626;-8.668;2023-04-05T04:43:19;101519.03;;;14.52;100.00
64352;BME280;50680;52.626;-8.668;2023-04-05T04:45:52;101519.41;;;14.46;100.00
64352;BME280;50680;52.626;-8.668;2023-04-05T04:48:22;101507.19;;;14.45;100.00
64352;BME280;50680;52.626;-8.668;2023-04-05T04:50:49;101509.59;;;14.48;100.00
64352;BME280;50680;52.626;-8.668;2023-04-05T04:53:16;101511.03;;;14.54;100.00
64352;BME280;50680;52.626;-8.668;2023-04-05T04:55:44;101506.03;;;14.49;100.00
64352;BME280;50680;52.626;-8.668;2023-04-05T04:58:12;101503.31;;;14.51;100.00
64352;BME280;50680;52.626;-8.668;2023-04-05T05:00:42;101503.75;;;14.43;100.00
64352;BME280;50680;52.626;-8.668;2023-04-05T05:03:10;101506.72;;;14.38;100.00
64352;BME280;50680;52.626;-8.668;2023-04-05T05:05:44;101511.25;;;14.36;100.00
64352;BME280;50680;52.626;-8.668;2023-04-05T05:08:12;101511.44;;;14.33;100.00
64352;BME280;50680;52.626;-8.668;2023-04-05T05:10:39;101519.25;;;14.35;100.00
64352;BME280;50680;52.626;-8.668;2023-04-05T05:13:06;101515.09;;;14.45;100.00
64352;BME280;50680;52.626;-8.668;2023-04-05T05:15:33;101507.63;;;14.52;100.00
64352;BME280;50680;52.626;-8.668;2023-04-05T05:17:59;101509.16;;;14.41;100.00
64352;BME280;50680;52.626;-8.668;2023-04-05T05:20:26;101510.38;;;14.50;100.00
64352;BME280;50680;52.626;-8.668;2023-04-05T05:22:54;101511.31;;;14.49;100.00
64352;BME280;50680;52.626;-8.668;2023-04-05T05:25:21;101509.41;;;14.51;100.00
64352;BME280;50680;52.626;-8.668;2023-04-05T05:27:49;101515.66;;;14.50;100.00
64352;BME280;50680;52.626;-8.668;2023-04-05T05:30:18;101511.88;;;14.54;100.00
64352;BME280;50680;52.626;-8.668;2023-04-05T05:32:47;101508.13;;;14.44;100.00
64352;BME280;50680;52.626;-8.668;2023-04-05T05:35:14;101504.53;;;14.45;100.00
64352;BME280;50680;52.626;-8.668;2023-04-05T05:37:41;101502.34;;;14.52;100.00
64352;BME280;50680;52.626;-8.668;2023-04-05T05:40:08;101502.16;;;14.55;100.00
64352;BME280;50680;52.626;-8.668;2023-04-05T05:42:38;101504.88;;;14.53;100.00
64352;BME280;50680;52.626;-8.668;2023-04-05T05:45:05;101508.38;;;14.54;100.00
64352;BME280;50680;52.626;-8.668;2023-04-05T05:47:32;101515.34;;;14.55;100.00
64352;BME280;50680;52.626;-8.668;2023-04-05T05:49:59;101509.97;;;14.56;100.00
64352;BME280;50680;52.626;-8.668;2023-04-05T05:52:27;101517.06;;;14.56;100.00
64352;BME280;50680;52.626;-8.668;2023-04-05T05:54:54;101514.31;;;14.57;100.00
64352;BME280;50680;52.626;-8.668;2023-04-05T05:57:21;101509.88;;;14.58;100.00
64352;BME280;50680;52.626;-8.668;2023-04-05T05:59:48;101510.66;;;14.60;100.00
64352;BME280;50680;52.626;-8.668;2023-04-05T06:02:15;101505.09;;;14.64;100.00
64352;BME280;50680;52.626;-8.668;2023-04-05T06:04:42;101507.00;;;14.62;100.00
64352;BME280;50680;52.626;-8.668;2023-04-05T06:07:09;101504.03;;;14.67;100.00
64352;BME280;50680;52.626;-8.668;2023-04-05T06:09:36;101515.66;;;14.64;100.00
64352;BME280;50680;52.626;-8.668;2023-04-05T06:12:03;101510.28;;;14.66;100.00
64352;BME280;50680;52.626;-8.668;2023-04-05T06:14:30;101513.09;;;14.63;100.00
64352;BME280;50680;52.626;-8.668;2023-04-05T06:16:57;101507.72;;;14.64;100.00
64352;BME280;50680;52.626;-8.668;2023-04-05T06:19:24;101493.06;;;14.60;100.00
64352;BME280;50680;52.626;-8.668;2023-04-05T06:21:51;101495.94;;;14.70;100.00
64352;BME280;50680;52.626;-8.668;2023-04-05T06:24:18;101507.72;;;14.64;100.00
64352;BME280;50680;52.626;-8.668;2023-04-05T06:26:44;101490.00;;;14.66;100.00
64352;BME280;50680;52.626;-8.668;2023-04-05T06:29:11;101498.09;;;14.63;100.00
64352;BME280;50680;52.626;-8.668;2023-04-05T06:31:38;101489.06;;;14.68;100.00
64352;BME280;50680;52.626;-8.668;2023-04-05T06:34:07;101483.78;;;14.68;100.00
64352;BME280;50680;52.626;-8.668;2023-04-05T06:36:33;101489.06;;;14.68;100.00
64352;BME280;50680;52.626;-8.668;2023-04-05T06:39:00;101490.75;;;14.69;100.00
64352;BME280;50680;52.626;-8.668;2023-04-05T06:41:27;101488.41;;;14.64;100.00
64352;BME280;50680;52.626;-8.668;2023-04-05T06:43:54;101491.81;;;14.66;100.00
64352;BME280;50680;52.626;-8.668;2023-04-05T06:46:22;101496.66;;;14.72;100.00
64352;BME280;50680;52.626;-8.668;2023-04-05T06:48:50;101500.00;;;14.61;100.00
64352;BME280;50680;52.626;-8.668;2023-04-05T06:51:18;101486.44;;;14.68;100.00
64352;BME280;50680;52.626;-8.668;2023-04-05T06:53:45;101487.34;;;14.66;100.00
64352;BME280;50680;52.626;-8.668;2023-04-05T06:56:12;101483.69;;;14.69;100.00
64352;BME280;50680;52.626;-8.668;2023-04-05T06:58:39;101489.25;;;14.64;100.00
64352;BME280;50680;52.626;-8.668;2023-04-05T07:01:06;101489.06;;;14.68;100.00
64352;BME280;50680;52.626;-8.668;2023-04-05T07:03:33;101491.00;;;14.78;100.00
64352;BME280;50680;52.626;-8.668;2023-04-05T07:06:00;101484.34;;;14.73;100.00
64352;BME280;50680;52.626;-8.668;2023-04-05T07:08:30;101491.09;;;14.77;100.00
64352;BME280;50680;52.626;-8.668;2023-04-05T07:10:57;101485.44;;;14.83;100.00
64352;BME280;50680;52.626;-8.668;2023-04-05T07:13:24;101492.41;;;14.84;100.00
64352;BME280;50680;52.626;-8.668;2023-04-05T07:15:51;101488.09;;;14.83;100.00
64352;BME280;50680;52.626;-8.668;2023-04-05T07:18:24;101496.84;;;14.83;100.00
64352;BME280;50680;52.626;-8.668;2023-04-05T07:20:51;101486.38;;;14.82;100.00
64352;BME280;50680;52.626;-8.668;2023-04-05T07:23:21;101488.09;;;14.83;100.00
64352;BME280;50680;52.626;-8.668;2023-04-05T07:25:48;101489.09;;;14.80;100.00
64352;BME280;50680;52.626;-8.668;2023-04-05T07:28:15;101484.25;;;14.74;100.00
64352;BME280;50680;52.626;-8.668;2023-04-05T07:30:42;101483.19;;;14.77;100.00
64352;BME280;50680;52.626;-8.668;2023-04-05T07:33:09;101485.53;;;14.81;100.00
64352;BME280;50680;52.626;-8.668;2023-04-05T07:35:36;101481.84;;;14.84;100.00
64352;BME280;50680;52.626;-8.668;2023-04-05T07:38:03;101487.75;;;14.88;100.00
64352;BME280;50680;52.626;-8.668;2023-04-05T07:40:30;101482.00;;;14.95;100.00
64352;BME280;50680;52.626;-8.668;2023-04-05T07:42:56;101489.03;;;14.95;100.00
64352;BME280;50680;52.626;-8.668;2023-04-05T07:45:24;101484.72;;;14.94;100.00
64352;BME280;50680;52.626;-8.668;2023-04-05T07:47:50;101480.84;;;14.99;100.00
64352;BME280;50680;52.626;-8.668;2023-04-05T07:50:17;101487.06;;;14.98;100.00
64352;BME280;50680;52.626;-8.668;2023-04-05T07:52:44;101479.91;;;15.00;100.00
64352;BME280;50680;52.626;-8.668;2023-04-05T07:55:11;101483.09;;;15.06;100.00
64352;BME280;50680;52.626;-8.668;2023-04-05T07:57:38;101481.28;;;15.06;100.00
64352;BME280;50680;52.626;-8.668;2023-04-05T08:00:05;101483.63;;;15.11;100.00
64352;BME280;50680;52.626;-8.668;2023-04-05T08:02:39;101479.81;;;15.15;100.00
64352;BME280;50680;52.626;-8.668;2023-04-05T08:05:06;101476.56;;;15.24;100.00
64352;BME280;50680;52.626;-8.668;2023-04-05T08:07:33;101470.69;;;15.33;100.00
64352;BME280;50680;52.626;-8.668;2023-04-05T08:10:00;101471.94;;;15.40;100.00
64352;BME280;50680;52.626;-8.668;2023-04-05T08:12:27;101474.16;;;15.47;100.00
64352;BME280;50680;52.626;-8.668;2023-04-05T08:14:55;101471.13;;;15.53;100.00
64352;BME280;50680;52.626;-8.668;2023-04-05T08:17:22;101474.50;;;15.55;100.00
64352;BME280;50680;52.626;-8.668;2023-04-05T08:19:53;101465.81;;;15.53;100.00
64352;BME280;50680;52.626;-8.668;2023-04-05T08:22:20;101474.59;;;15.53;100.00
64352;BME280;50680;52.626;-8.668;2023-04-05T08:24:46;101475.22;;;15.57;100.00
64352;BME280;50680;52.626;-8.668;2023-04-05T08:27:13;101478.31;;;15.51;100.00
64352;BME280;50680;52.626;-8.668;2023-04-05T08:29:40;101468.88;;;15.47;100.00
64352;BME280;50680;52.626;-8.668;2023-04-05T08:32:07;101471.31;;;15.50;100.00
64352;BME280;50680;52.626;-8.668;2023-04-05T08:34:34;101472.19;;;15.63;100.00
64352;BME280;50680;52.626;-8.668;2023-04-05T08:37:01;101466.69;;;15.66;100.00
64352;BME280;50680;52.626;-8.668;2023-04-05T08:39:28;101462.75;;;15.72;100.00
64352;BME280;50680;52.626;-8.668;2023-04-05T08:42:16;101464.47;;;15.73;100.00
64352;BME280;50680;52.626;-8.668;2023-04-05T08:44:44;101465.22;;;15.88;100.00
64352;BME280;50680;52.626;-8.668;2023-04-05T08:47:15;101461.00;;;15.85;100.00
64352;BME280;50680;52.626;-8.668;2023-04-05T08:49:44;101467.22;;;15.97;100.00
64352;BME280;50680;52.626;-8.668;2023-04-05T08:52:11;101459.69;;;16.04;100.00
64352;BME280;50680;52.626;-8.668;2023-04-05T08:54:38;101471.09;;;16.17;100.00
64352;BME280;50680;52.626;-8.668;2023-04-05T08:57:06;101461.00;;;16.35;100.00
64352;BME280;50680;52.626;-8.668;2023-04-05T08:59:36;101461.06;;;16.46;100.00
64352;BME280;50680;52.626;-8.668;2023-04-05T09:02:11;101464.03;;;16.54;100.00
64352;BME280;50680;52.626;-8.668;2023-04-05T09:04:42;101468.31;;;16.68;100.00
64352;BME280;50680;52.626;-8.668;2023-04-05T09:07:12;101468.72;;;16.75;100.00
64352;BME280;50680;52.626;-8.668;2023-04-05T09:09:43;101472.41;;;16.72;100.00
64352;BME280;50680;52.626;-8.668;2023-04-05T09:12:12;101467.50;;;16.79;100.00
64352;BME280;50680;52.626;-8.668;2023-04-05T09:14:40;101464.25;;;16.76;100.00
64352;BME280;50680;52.626;-8.668;2023-04-05T09:17:08;101469.94;;;16.82;100.00
64352;BME280;50680;52.626;-8.668;2023-04-05T09:19:35;101469.44;;;16.77;100.00
64352;BME280;50680;52.626;-8.668;2023-04-05T09:22:05;101469.72;;;16.61;100.00
64352;BME280;50680;52.626;-8.668;2023-04-05T09:27:12;101477.31;;;16.66;100.00
64352;BME280;50680;52.626;-8.668;2023-04-05T09:29:42;101475.38;;;16.68;100.00
64352;BME280;50680;52.626;-8.668;2023-04-05T09:32:10;101478.78;;;16.70;100.00
64352;BME280;50680;52.626;-8.668;2023-04-05T09:34:38;101469.94;;;16.82;100.00
64352;BME280;50680;52.626;-8.668;2023-04-05T09:37:19;101463.97;;;16.91;100.00
64352;BME280;50680;52.626;-8.668;2023-04-05T09:39:48;101469.97;;;17.06;100.00
64352;BME280;50680;52.626;-8.668;2023-04-05T09:42:17;101472.63;;;17.18;100.00
64352;BME280;50680;52.626;-8.668;2023-04-05T09:44:57;101476.38;;;17.26;100.00
64352;BME280;50680;52.626;-8.668;2023-04-05T09:47:30;101473.28;;;17.33;100.00
64352;BME280;50680;52.626;-8.668;2023-04-05T09:50:02;101477.38;;;17.37;100.00
64352;BME280;50680;52.626;-8.668;2023-04-05T09:52:32;101481.84;;;17.36;100.00
64352;BME280;50680;52.626;-8.668;2023-04-05T09:55:01;101475.44;;;17.39;100.00
64352;BME280;50680;52.626;-8.668;2023-04-05T09:57:36;101449.97;;;17.14;100.00
64352;BME280;50680;52.626;-8.668;2023-04-05T10:00:04;101467.50;;;17.27;100.00
64352;BME280;50680;52.626;-8.668;2023-04-05T10:02:36;101472.78;;;17.27;100.00
64352;BME280;50680;52.626;-8.668;2023-04-05T10:05:08;101474.47;;;17.28;100.00
64352;BME280;50680;52.626;-8.668;2023-04-05T10:07:39;101473.41;;;17.31;100.00
64352;BME280;50680;52.626;-8.668;2023-04-05T10:10:10;101472.06;;;17.25;100.00
64352;BME280;50680;52.626;-8.668;2023-04-05T10:12:39;101472.84;;;17.50;100.00
64352;BME280;50680;52.626;-8.668;2023-04-05T10:15:11;101467.19;;;17.66;100.00
64352;BME280;50680;52.626;-8.668;2023-04-05T10:17:55;101476.75;;;17.80;100.00
64352;BME280;50680;52.626;-8.668;2023-04-05T10:20:29;101478.44;;;17.81;100.00
64352;BME280;50680;52.626;-8.668;2023-04-05T10:23:12;101477.03;;;17.88;100.00
64352;BME280;50680;52.626;-8.668;2023-04-05T10:36:26;101464.50;;;18.01;100.00
64352;BME280;50680;52.626;-8.668;2023-04-05T10:39:12;101469.78;;;18.13;100.00
64352;BME280;50680;52.626;-8.668;2023-04-05T10:41:53;101472.31;;;18.14;100.00
64352;BME280;50680;52.626;-8.668;2023-04-05T10:44:21;101464.00;;;18.19;100.00
64352;BME280;50680;52.626;-8.668;2023-04-05T10:46:52;101476.53;;;17.94;100.00
64352;BME280;50680;52.626;-8.668;2023-04-05T10:49:26;101463.75;;;17.99;100.00
64352;BME280;50680;52.626;-8.668;2023-04-05T10:51:56;101481.47;;;17.99;100.00
64352;BME280;50680;52.626;-8.668;2023-04-05T10:54:23;101476.25;;;17.75;100.00
64352;BME280;50680;52.626;-8.668;2023-04-05T10:56:50;101473.25;;;17.79;100.00
64352;BME280;50680;52.626;-8.668;2023-04-05T10:59:19;101482.16;;;17.78;100.00
64352;BME280;50680;52.626;-8.668;2023-04-05T11:01:48;101485.41;;;17.82;100.00
64352;BME280;50680;52.626;-8.668;2023-04-05T11:04:15;101477.34;;;17.83;100.00
64352;BME280;50680;52.626;-8.668;2023-04-05T11:06:43;101471.16;;;17.72;100.00
64352;BME280;50680;52.626;-8.668;2023-04-05T11:09:18;101478.28;;;17.60;100.00
64352;BME280;50680;52.626;-8.668;2023-04-05T11:11:47;101478.03;;;17.52;100.00
64352;BME280;50680;52.626;-8.668;2023-04-05T11:14:20;101482.38;;;17.64;100.00
64352;BME280;50680;52.626;-8.668;2023-04-05T11:16:49;101479.47;;;17.44;100.00
64352;BME280;50680;52.626;-8.668;2023-04-05T11:19:20;101484.16;;;17.41;100.00
64352;BME280;50680;52.626;-8.668;2023-04-05T11:22:06;101491.13;;;17.31;100.00
64352;BME280;50680;52.626;-8.668;2023-04-05T11:27:16;101491.88;;;16.84;100.00
64352;BME280;50680;52.626;-8.668;2023-04-05T11:29:47;101488.50;;;16.69;100.00
64352;BME280;50680;52.626;-8.668;2023-04-05T11:32:17;101494.06;;;16.66;100.00
64352;BME280;50680;52.626;-8.668;2023-04-05T11:34:57;101502.53;;;16.59;100.00
64352;BME280;50680;52.626;-8.668;2023-04-05T11:37:53;101514.44;;;16.40;100.00
64352;BME280;50680;52.626;-8.668;2023-04-05T11:40:35;101512.72;;;16.52;100.00
64352;BME280;50680;52.626;-8.668;2023-04-05T11:43:04;101511.78;;;16.40;100.00
64352;BME280;50680;52.626;-8.668;2023-04-05T11:45:35;101498.09;;;16.22;100.00
64352;BME280;50680;52.626;-8.668;2023-04-05T11:48:08;101501.34;;;16.26;100.00
64352;BME280;50680;52.626;-8.668;2023-04-05T11:50:37;101503.53;;;16.45;100.00
64352;BME280;50680;52.626;-8.668;2023-04-05T11:53:15;101501.00;;;16.43;100.00
64352;BME280;50680;52.626;-8.668;2023-04-05T11:55:44;101502.72;;;16.68;100.00
64352;BME280;50680;52.626;-8.668;2023-04-05T11:58:20;101496.75;;;16.78;100.00
64352;BME280;50680;52.626;-8.668;2023-04-05T12:00:58;101487.44;;;16.85;100.00
64352;BME280;50680;52.626;-8.668;2023-04-05T12:03:26;101480.97;;;16.89;100.00
64352;BME280;50680;52.626;-8.668;2023-04-05T12:05:58;101493.00;;;17.17;100.00
64352;BME280;50680;52.626;-8.668;2023-04-05T12:08:44;101491.63;;;17.36;100.00
64352;BME280;50680;52.626;-8.668;2023-04-05T12:11:26;101494.84;;;17.28;100.00
64352;BME280;50680;52.626;-8.668;2023-04-05T12:14:02;101487.84;;;17.27;100.00
64352;BME280;50680;52.626;-8.668;2023-04-05T12:16:29;101491.69;;;17.23;100.00
64352;BME280;50680;52.626;-8.668;2023-04-05T12:18:58;101489.72;;;17.14;100.00
64352;BME280;50680;52.626;-8.668;2023-04-05T12:21:25;101479.25;;;17.12;100.00
64352;BME280;50680;52.626;-8.668;2023-04-05T12:23:53;101485.78;;;17.19;100.00
64352;BME280;50680;52.626;-8.668;2023-04-05T12:26:21;101480.41;;;17.32;100.00
64352;BME280;50680;52.626;-8.668;2023-04-05T12:28:56;101475.31;;;17.29;100.00
64352;BME280;50680;52.626;-8.668;2023-04-05T12:31:45;101474.53;;;17.51;100.00
64352;BME280;50680;52.626;-8.668;2023-04-05T12:34:13;101477.44;;;17.59;100.00
64352;BME280;50680;52.626;-8.668;2023-04-05T12:36:44;101478.91;;;17.63;100.00
64352;BME280;50680;52.626;-8.668;2023-04-05T12:39:11;101479.19;;;17.94;100.00
64352;BME280;50680;52.626;-8.668;2023-04-05T12:41:41;101476.03;;;18.23;100.00
64352;BME280;50680;52.626;-8.668;2023-04-05T12:44:14;101475.91;;;18.36;100.00
64352;BME280;50680;52.626;-8.668;2023-04-05T12:46:46;101485.44;;;18.38;100.00
64352;BME280;50680;52.626;-8.668;2023-04-05T12:49:17;101495.56;;;18.45;100.00
64352;BME280;50680;52.626;-8.668;2023-04-05T12:51:45;101484.47;;;18.39;100.00
64352;BME280;50680;52.626;-8.668;2023-04-05T12:54:22;101488.34;;;18.79;100.00
64352;BME280;50680;52.626;-8.668;2023-04-05T12:56:50;101488.03;;;19.05;100.00
64352;BME280;50680;52.626;-8.668;2023-04-05T12:59:21;101494.81;;;19.51;100.00
64352;BME280;50680;52.626;-8.668;2023-04-05T13:01:48;101501.38;;;19.68;100.00
64352;BME280;50680;52.626;-8.668;2023-04-05T13:04:15;101495.97;;;19.58;100.00
64352;BME280;50680;52.626;-8.668;2023-04-05T13:06:44;101489.56;;;19.61;100.00
64352;BME280;50680;52.626;-8.668;2023-04-05T13:09:14;101496.00;;;19.79;100.00
64352;BME280;50680;52.626;-8.668;2023-04-05T13:11:41;101489.69;;;20.11;100.00
64352;BME280;50680;52.626;-8.668;2023-04-05T13:14:08;101487.25;;;20.39;100.00